Wetterdaten: Sonntag, 30.05.2010
Datum Zeit Temp. A. Feuchte A. Luftdruck Regen Wind Richtung Richtung Sonnenschein UV Solar Windben
30.05.2010 00:00 16,1 C 64 % 1009,9 hPa 0,0 mm 1,6 km/h (1 Bft) S-SO 157 0 min 0 UV-I 0 W/m 6,4 km/h (2 Bft)
30.05.2010 00:10 16,0 C 64 % 1009,8 hPa 0,0 mm 1,6 km/h (1 Bft) S-SO 157 0 min 0 UV-I 0 W/m 6,4 km/h (2 Bft)
30.05.2010 00:20 15,9 C 64 % 1009,7 hPa 0,0 mm 1,6 km/h (1 Bft) S-SO 157 0 min 0 UV-I 0 W/m 4,8 km/h (1 Bft)
30.05.2010 00:30 16,1 C 64 % 1009,6 hPa 0,0 mm 0,0 km/h (0 Bft) S-SO 157 0 min 0 UV-I 0 W/m 4,8 km/h (1 Bft)
30.05.2010 00:40 16,1 C 65 % 1009,5 hPa 0,0 mm 0,0 km/h (0 Bft) S-SO 157 0 min 0 UV-I 0 W/m 6,4 km/h (2 Bft)
30.05.2010 00:50 16,1 C 66 % 1009,4 hPa 0,0 mm 1,6 km/h (1 Bft) S-SW 202 0 min 0 UV-I 0 W/m 11,3 km/h (2 Bft)
30.05.2010 01:00 15,9 C 66 % 1009,2 hPa 0,0 mm 1,6 km/h (1 Bft) W-SW 247 0 min 0 UV-I 0 W/m 8,0 km/h (2 Bft)
30.05.2010 01:10 15,8 C 66 % 1009,2 hPa 0,0 mm 0,0 km/h (0 Bft) SW 225 0 min 0 UV-I 0 W/m 8,0 km/h (2 Bft)
30.05.2010 01:20 15,7 C 67 % 1008,9 hPa 0,0 mm 0,0 km/h (0 Bft) SW 225 0 min 0 UV-I 0 W/m 3,2 km/h (1 Bft)
30.05.2010 01:30 15,5 C 67 % 1008,7 hPa 0,0 mm 0,0 km/h (0 Bft) SW 225 0 min 0 UV-I 0 W/m 6,4 km/h (2 Bft)
30.05.2010 01:40 15,4 C 66 % 1008,6 hPa 0,0 mm 1,6 km/h (1 Bft) SW 225 0 min 0 UV-I 0 W/m 9,7 km/h (2 Bft)
30.05.2010 01:50 15,5 C 66 % 1008,5 hPa 0,0 mm 0,0 km/h (0 Bft) S-SW 202 0 min 0 UV-I 0 W/m 3,2 km/h (1 Bft)
30.05.2010 02:00 15,5 C 66 % 1008,3 hPa 0,0 mm 0,0 km/h (0 Bft) S-SW 202 0 min 0 UV-I 0 W/m 3,2 km/h (1 Bft)
30.05.2010 02:10 15,4 C 66 % 1008,2 hPa 0,0 mm 0,0 km/h (0 Bft) S-SW 202 0 min 0 UV-I 0 W/m 3,2 km/h (1 Bft)
30.05.2010 02:20 15,3 C 67 % 1008,1 hPa 0,0 mm 0,0 km/h (0 Bft) S-SW 202 0 min 0 UV-I 0 W/m 3,2 km/h (1 Bft)
30.05.2010 02:30 15,2 C 67 % 1008,1 hPa 0,0 mm 1,6 km/h (1 Bft) S-SW 202 0 min 0 UV-I 0 W/m 6,4 km/h (2 Bft)
30.05.2010 02:40 15,1 C 68 % 1008,1 hPa 0,0 mm 3,2 km/h (1 Bft) S-SW 202 0 min 0 UV-I 0 W/m 11,3 km/h (2 Bft)
30.05.2010 02:50 14,9 C 73 % 1008,1 hPa 0,3 mm 1,6 km/h (1 Bft) SW 225 0 min 0 UV-I 0 W/m 6,4 km/h (2 Bft)
30.05.2010 03:00 14,3 C 78 % 1008,1 hPa 0,0 mm 0,0 km/h (0 Bft) SW 225 0 min 0 UV-I 0 W/m 4,8 km/h (1 Bft)
30.05.2010 03:10 13,9 C 80 % 1007,9 hPa 0,3 mm 0,0 km/h (0 Bft) SW 225 0 min 0 UV-I 0 W/m 6,4 km/h (2 Bft)
30.05.2010 03:20 13,6 C 82 % 1007,8 hPa 0,3 mm 0,0 km/h (0 Bft) SW 225 0 min 0 UV-I 0 W/m 1,6 km/h (1 Bft)
30.05.2010 03:30 13,4 C 85 % 1007,7 hPa 0,3 mm 0,0 km/h (0 Bft) SW 225 0 min 0 UV-I 0 W/m 1,6 km/h (1 Bft)
30.05.2010 03:40 13,3 C 86 % 1007,6 hPa 0,3 mm 0,0 km/h (0 Bft) SW 225 0 min 0 UV-I 0 W/m 1,6 km/h (1 Bft)
30.05.2010 03:50 13,1 C 87 % 1007,3 hPa 0,0 mm 0,0 km/h (0 Bft) SW 225 0 min 0 UV-I 0 W/m 1,6 km/h (1 Bft)
30.05.2010 04:00 12,9 C 88 % 1007,1 hPa 0,3 mm 0,0 km/h (0 Bft) SW 225 0 min 0 UV-I 0 W/m 1,6 km/h (1 Bft)
30.05.2010 04:10 12,9 C 89 % 1007,0 hPa 0,5 mm 0,0 km/h (0 Bft) SW 225 0 min 0 UV-I 0 W/m 1,6 km/h (1 Bft)
30.05.2010 04:20 12,8 C 89 % 1006,9 hPa 0,3 mm 0,0 km/h (0 Bft) SW 225 0 min 0 UV-I 0 W/m 1,6 km/h (1 Bft)
30.05.2010 04:30 12,7 C 90 % 1006,6 hPa 0,0 mm 0,0 km/h (0 Bft) SW 225 0 min 0 UV-I 0 W/m 4,8 km/h (1 Bft)
30.05.2010 04:40 12,7 C 90 % 1006,6 hPa 0,3 mm 0,0 km/h (0 Bft) SW 225 0 min 0 UV-I 0 W/m 3,2 km/h (1 Bft)
30.05.2010 04:50 12,7 C 90 % 1006,4 hPa 0,0 mm 1,6 km/h (1 Bft) SW 225 0 min 0 UV-I 0 W/m 4,8 km/h (1 Bft)
30.05.2010 05:00 12,6 C 90 % 1006,3 hPa 0,3 mm 0,0 km/h (0 Bft) S-SW 202 0 min 0 UV-I 0 W/m 3,2 km/h (1 Bft)
30.05.2010 05:10 12,5 C 90 % 1006,2 hPa 0,3 mm 0,0 km/h (0 Bft) S-SW 202 0 min 0 UV-I 0 W/m 1,6 km/h (1 Bft)
30.05.2010 05:20 12,4 C 90 % 1006,0 hPa 0,3 mm 1,6 km/h (1 Bft) S-SW 202 0 min 0 UV-I 0 W/m 4,8 km/h (1 Bft)
30.05.2010 05:30 12,3 C 91 % 1005,9 hPa 0,0 mm 1,6 km/h (1 Bft) S-SW 202 0 min 0 UV-I 0 W/m 4,8 km/h (1 Bft)
30.05.2010 05:40 12,3 C 91 % 1005,8 hPa 0,3 mm 1,6 km/h (1 Bft) S-SW 202 0 min 0 UV-I 0 W/m 6,4 km/h (2 Bft)
30.05.2010 05:50 12,3 C 91 % 1005,7 hPa 0,3 mm 1,6 km/h (1 Bft) S 180 0 min 0 UV-I 5 W/m 6,4 km/h (2 Bft)
30.05.2010 06:00 12,3 C 91 % 1005,7 hPa 0,0 mm 1,6 km/h (1 Bft) S 180 0 min 0 UV-I 5 W/m 6,4 km/h (2 Bft)
30.05.2010 06:10 12,3 C 91 % 1005,7 hPa 0,5 mm 0,0 km/h (0 Bft) S 180 0 min 0 UV-I 5 W/m 3,2 km/h (1 Bft)
30.05.2010 06:20 12,3 C 91 % 1005,6 hPa 0,0 mm 0,0 km/h (0 Bft) S 180 0 min 0 UV-I 16 W/m 3,2 km/h (1 Bft)
30.05.2010 06:30 12,3 C 91 % 1005,6 hPa 0,0 mm 0,0 km/h (0 Bft) S 180 0 min 0 UV-I 16 W/m 1,6 km/h (1 Bft)
30.05.2010 06:40 12,3 C 91 % 1005,6 hPa 0,0 mm 0,0 km/h (0 Bft) S 180 0 min 0 UV-I 37 W/m 1,6 km/h (1 Bft)
30.05.2010 06:50 12,4 C 91 % 1005,5 hPa 0,0 mm 0,0 km/h (0 Bft) S 180 0 min 0 UV-I 39 W/m 3,2 km/h (1 Bft)
30.05.2010 07:00 12,6 C 92 % 1005,4 hPa 0,0 mm 0,0 km/h (0 Bft) S 180 0 min 0 UV-I 49 W/m 1,6 km/h (1 Bft)
30.05.2010 07:10 12,8 C 92 % 1005,3 hPa 0,0 mm 0,0 km/h (0 Bft) S 180 0 min 0 UV-I 65 W/m 3,2 km/h (1 Bft)
30.05.2010 07:20 12,8 C 92 % 1005,4 hPa 0,0 mm 0,0 km/h (0 Bft) S 180 0 min 1 UV-I 102 W/m 3,2 km/h (1 Bft)
30.05.2010 07:30 13,0 C 92 % 1005,2 hPa 0,0 mm 0,0 km/h (0 Bft) S 180 0 min 1 UV-I 142 W/m 3,2 km/h (1 Bft)
30.05.2010 07:40 13,2 C 92 % 1005,3 hPa 0,0 mm 0,0 km/h (0 Bft) S 180 0 min 1 UV-I 178 W/m 1,6 km/h (1 Bft)
30.05.2010 07:50 13,4 C 91 % 1005,1 hPa 0,0 mm 1,6 km/h (1 Bft) S 180 0 min 1 UV-I 185 W/m 8,0 km/h (2 Bft)
30.05.2010 08:00 13,7 C 90 % 1005,1 hPa 0,0 mm 0,0 km/h (0 Bft) S 180 0 min 1 UV-I 183 W/m 4,8 km/h (1 Bft)
30.05.2010 08:10 14,1 C 90 % 1005,1 hPa 0,0 mm 0,0 km/h (0 Bft) S 180 0 min 1 UV-I 220 W/m 3,2 km/h (1 Bft)
30.05.2010 08:20 14,2 C 89 % 1005,1 hPa 0,0 mm 1,6 km/h (1 Bft) S 180 0 min 1 UV-I 192 W/m 6,4 km/h (2 Bft)
30.05.2010 08:30 14,2 C 89 % 1005,1 hPa 0,0 mm 1,6 km/h (1 Bft) S 180 0 min 1 UV-I 186 W/m 6,4 km/h (2 Bft)
30.05.2010 08:40 14,3 C 88 % 1005,1 hPa 0,0 mm 0,0 km/h (0 Bft) S 180 0 min 1 UV-I 213 W/m 3,2 km/h (1 Bft)
30.05.2010 08:50 14,4 C 88 % 1005,0 hPa 0,0 mm 0,0 km/h (0 Bft) S 180 0 min 1 UV-I 193 W/m 6,4 km/h (2 Bft)
30.05.2010 09:00 14,6 C 88 % 1004,9 hPa 0,0 mm 0,0 km/h (0 Bft) S 180 0 min 1 UV-I 213 W/m 4,8 km/h (1 Bft)
30.05.2010 09:10 14,8 C 86 % 1004,9 hPa 0,0 mm 0,0 km/h (0 Bft) S 180 10 min 2 UV-I 311 W/m 3,2 km/h (1 Bft)
30.05.2010 09:20 15,1 C 85 % 1004,9 hPa 0,0 mm 1,6 km/h (1 Bft) S 180 10 min 2 UV-I 325 W/m 8,0 km/h (2 Bft)
30.05.2010 09:30 15,1 C 85 % 1004,9 hPa 0,0 mm 1,6 km/h (1 Bft) S-SW 202 10 min 2 UV-I 364 W/m 9,7 km/h (2 Bft)
30.05.2010 09:40 15,5 C 83 % 1004,8 hPa 0,0 mm 1,6 km/h (1 Bft) S-SW 202 10 min 2 UV-I 397 W/m 9,7 km/h (2 Bft)
30.05.2010 09:50 15,7 C 82 % 1004,8 hPa 0,0 mm 1,6 km/h (1 Bft) S-SW 202 0 min 2 UV-I 297 W/m 9,7 km/h (2 Bft)
30.05.2010 10:00 15,5 C 82 % 1004,6 hPa 0,0 mm 3,2 km/h (1 Bft) SW 225 0 min 2 UV-I 304 W/m 14,5 km/h (3 Bft)
30.05.2010 10:10 15,5 C 82 % 1004,6 hPa 0,0 mm 1,6 km/h (1 Bft) SW 225 10 min 4 UV-I 756 W/m 14,5 km/h (3 Bft)
30.05.2010 10:20 16,0 C 78 % 1004,5 hPa 0,0 mm 4,8 km/h (1 Bft) W-SW 247 10 min 4 UV-I 821 W/m 12,9 km/h (3 Bft)
30.05.2010 10:30 16,2 C 75 % 1004,3 hPa 0,0 mm 8,0 km/h (2 Bft) W-SW 247 0 min 2 UV-I 297 W/m 22,5 km/h (4 Bft)
30.05.2010 10:40 16,1 C 77 % 1004,2 hPa 0,0 mm 4,8 km/h (1 Bft) W 270 10 min 4 UV-I 789 W/m 17,7 km/h (3 Bft)
30.05.2010 10:50 16,7 C 74 % 1004,2 hPa 0,0 mm 6,4 km/h (2 Bft) W 270 0 min 4 UV-I 355 W/m 17,7 km/h (3 Bft)
30.05.2010 11:00 16,7 C 74 % 1004,3 hPa 0,0 mm 6,4 km/h (2 Bft) W-SW 247 0 min 2 UV-I 313 W/m 17,7 km/h (3 Bft)
30.05.2010 11:10 16,1 C 79 % 1004,4 hPa 0,3 mm 8,0 km/h (2 Bft) W-SW 247 10 min 4 UV-I 809 W/m 19,3 km/h (3 Bft)
30.05.2010 11:20 15,7 C 80 % 1004,3 hPa 0,0 mm 8,0 km/h (2 Bft) W-SW 247 0 min 2 UV-I 264 W/m 29,0 km/h (5 Bft)
30.05.2010 11:30 15,1 C 83 % 1004,3 hPa 0,0 mm 8,0 km/h (2 Bft) W 270 0 min 2 UV-I 276 W/m 20,9 km/h (4 Bft)
30.05.2010 11:40 15,0 C 84 % 1004,3 hPa 0,0 mm 8,0 km/h (2 Bft) W-SW 247 0 min 3 UV-I 408 W/m 17,7 km/h (3 Bft)
30.05.2010 11:50 15,0 C 83 % 1004,3 hPa 0,0 mm 9,7 km/h (2 Bft) W 270 0 min 3 UV-I 369 W/m 24,1 km/h (4 Bft)
30.05.2010 12:00 15,1 C 84 % 1004,4 hPa 0,0 mm 6,4 km/h (2 Bft) W-SW 247 10 min 5 UV-I 654 W/m 16,1 km/h (3 Bft)
30.05.2010 12:10 15,6 C 79 % 1004,4 hPa 0,0 mm 8,0 km/h (2 Bft) W 270 10 min 5 UV-I 689 W/m 24,1 km/h (4 Bft)
30.05.2010 12:20 16,2 C 77 % 1004,2 hPa 0,0 mm 9,7 km/h (2 Bft) W 270 10 min 6 UV-I 624 W/m 20,9 km/h (4 Bft)
30.05.2010 12:30 16,7 C 76 % 1004,2 hPa 0,0 mm 9,7 km/h (2 Bft) W 270 10 min 6 UV-I 680 W/m 29,0 km/h (5 Bft)
30.05.2010 12:40 15,9 C 81 % 1004,6 hPa 0,8 mm 9,7 km/h (2 Bft) W 270 0 min 1 UV-I 93 W/m 25,7 km/h (4 Bft)
30.05.2010 12:50 14,3 C 86 % 1004,5 hPa 0,5 mm 8,0 km/h (2 Bft) W-SW 247 0 min 2 UV-I 200 W/m 19,3 km/h (3 Bft)
30.05.2010 13:00 13,8 C 89 % 1004,3 hPa 0,0 mm 4,8 km/h (1 Bft) W-SW 247 0 min 7 UV-I 445 W/m 14,5 km/h (3 Bft)
30.05.2010 13:10 15,1 C 89 % 1004,2 hPa 0,0 mm 4,8 km/h (1 Bft) W-SW 247 10 min 7 UV-I 1090 W/m 16,1 km/h (3 Bft)
30.05.2010 13:20 15,6 C 86 % 1004,1 hPa 0,0 mm 8,0 km/h (2 Bft) W 270 0 min 5 UV-I 169 W/m 20,9 km/h (4 Bft)
30.05.2010 13:30 15,6 C 81 % 1003,9 hPa 0,0 mm 9,7 km/h (2 Bft) W-SW 247 10 min 4 UV-I 601 W/m 25,7 km/h (4 Bft)
30.05.2010 13:40 15,9 C 79 % 1003,8 hPa 0,0 mm 8,0 km/h (2 Bft) W 270 10 min 8 UV-I 1260 W/m 20,9 km/h (4 Bft)
30.05.2010 13:50 16,6 C 79 % 1003,6 hPa 0,0 mm 4,8 km/h (1 Bft) W-SW 247 10 min 7 UV-I 1116 W/m 19,3 km/h (3 Bft)
30.05.2010 14:00 17,1 C 80 % 1003,5 hPa 0,0 mm 8,0 km/h (2 Bft) W-SW 247 10 min 7 UV-I 1201 W/m 25,7 km/h (4 Bft)
30.05.2010 14:10 17,9 C 74 % 1003,4 hPa 0,0 mm 8,0 km/h (2 Bft) W 270 10 min 7 UV-I 1100 W/m 24,1 km/h (4 Bft)
30.05.2010 14:20 18,6 C 69 % 1003,3 hPa 0,0 mm 9,7 km/h (2 Bft) W-SW 247 10 min 6 UV-I 1086 W/m 20,9 km/h (4 Bft)
30.05.2010 14:30 18,7 C 66 % 1003,2 hPa 0,0 mm 9,7 km/h (2 Bft) W 270 10 min 6 UV-I 960 W/m 22,5 km/h (4 Bft)
30.05.2010 14:40 18,7 C 66 % 1003,2 hPa 0,0 mm 11,3 km/h (2 Bft) W 270 10 min 6 UV-I 1004 W/m 27,4 km/h (4 Bft)
30.05.2010 14:50 18,1 C 69 % 1003,0 hPa 0,0 mm 9,7 km/h (2 Bft) W-SW 247 0 min 2 UV-I 207 W/m 22,5 km/h (4 Bft)
30.05.2010 15:00 17,3 C 71 % 1003,0 hPa 0,0 mm 11,3 km/h (2 Bft) W 270 10 min 6 UV-I 1093 W/m 29,0 km/h (5 Bft)
30.05.2010 15:10 18,2 C 68 % 1002,9 hPa 0,0 mm 11,3 km/h (2 Bft) SW 225 10 min 6 UV-I 1046 W/m 24,1 km/h (4 Bft)
30.05.2010 15:20 18,7 C 70 % 1002,3 hPa 0,0 mm 9,7 km/h (2 Bft) W-SW 247 10 min 6 UV-I 1032 W/m 29,0 km/h (5 Bft)
30.05.2010 15:30 18,6 C 68 % 1002,7 hPa 0,0 mm 9,7 km/h (2 Bft) W-SW 247 10 min 5 UV-I 1007 W/m 29,0 km/h (5 Bft)
30.05.2010 15:40 18,8 C 68 % 1002,7 hPa 0,0 mm 11,3 km/h (2 Bft) W-SW 247 10 min 5 UV-I 469 W/m 30,6 km/h (5 Bft)
30.05.2010 15:50 18,1 C 69 % 1002,3 hPa 0,0 mm 12,9 km/h (3 Bft) W-SW 247 0 min 2 UV-I 171 W/m 32,2 km/h (5 Bft)
30.05.2010 16:00 17,1 C 72 % 1002,3 hPa 0,0 mm 11,3 km/h (2 Bft) W-SW 247 0 min 2 UV-I 188 W/m 25,7 km/h (4 Bft)
30.05.2010 16:10 16,8 C 73 % 1002,3 hPa 0,0 mm 8,0 km/h (2 Bft) W 270 0 min 2 UV-I 329 W/m 22,5 km/h (4 Bft)
30.05.2010 16:20 17,4 C 68 % 1002,3 hPa 0,0 mm 9,7 km/h (2 Bft) W-SW 247 10 min 4 UV-I 557 W/m 27,4 km/h (4 Bft)
30.05.2010 16:30 18,2 C 67 % 1002,6 hPa 0,0 mm 11,3 km/h (2 Bft) SW 225 10 min 3 UV-I 415 W/m 24,1 km/h (4 Bft)
30.05.2010 16:40 17,7 C 73 % 1002,8 hPa 0,0 mm 12,9 km/h (3 Bft) W 270 0 min 1 UV-I 56 W/m 37,0 km/h (5 Bft)
30.05.2010 16:50 15,7 C 83 % 1002,8 hPa 0,5 mm 12,9 km/h (3 Bft) W 270 0 min 0 UV-I 51 W/m 37,0 km/h (5 Bft)
30.05.2010 17:00 14,4 C 87 % 1002,8 hPa 0,5 mm 8,0 km/h (2 Bft) W 270 0 min 1 UV-I 128 W/m 25,7 km/h (4 Bft)
30.05.2010 17:10 14,2 C 88 % 1002,6 hPa 0,0 mm 9,7 km/h (2 Bft) W-SW 247 0 min 1 UV-I 265 W/m 27,4 km/h (4 Bft)
30.05.2010 17:20 14,6 C 87 % 1002,6 hPa 0,0 mm 8,0 km/h (2 Bft) W-SW 247 0 min 2 UV-I 257 W/m 24,1 km/h (4 Bft)
30.05.2010 17:30 14,6 C 87 % 1002,6 hPa 0,3 mm 8,0 km/h (2 Bft) W 270 0 min 1 UV-I 58 W/m 20,9 km/h (4 Bft)
30.05.2010 17:40 14,4 C 87 % 1002,6 hPa 1,3 mm 9,7 km/h (2 Bft) W 270 0 min 1 UV-I 58 W/m 33,8 km/h (5 Bft)
30.05.2010 17:50 14,1 C 88 % 1002,7 hPa 1,0 mm 12,9 km/h (3 Bft) W-SW 247 0 min 0 UV-I 19 W/m 33,8 km/h (5 Bft)
30.05.2010 18:00 13,7 C 88 % 1002,9 hPa 0,3 mm 14,5 km/h (3 Bft) W 270 0 min 0 UV-I 77 W/m 33,8 km/h (5 Bft)
30.05.2010 18:10 13,4 C 88 % 1002,9 hPa 0,3 mm 14,5 km/h (3 Bft) W 270 0 min 0 UV-I 32 W/m 33,8 km/h (5 Bft)
30.05.2010 18:20 12,9 C 86 % 1003,7 hPa 0,0 mm 12,9 km/h (3 Bft) W 270 0 min 1 UV-I 93 W/m 29,0 km/h (5 Bft)
30.05.2010 18:30 12,4 C 84 % 1003,8 hPa 0,0 mm 11,3 km/h (2 Bft) W-NW 292 0 min 1 UV-I 104 W/m 37,0 km/h (5 Bft)
30.05.2010 18:40 12,2 C 84 % 1003,9 hPa 0,0 mm 9,7 km/h (2 Bft) W-NW 292 0 min 1 UV-I 120 W/m 25,7 km/h (4 Bft)
30.05.2010 18:50 12,1 C 85 % 1004,0 hPa 0,0 mm 8,0 km/h (2 Bft) W-NW 292 0 min 1 UV-I 123 W/m 22,5 km/h (4 Bft)
30.05.2010 19:00 12,1 C 85 % 1004,2 hPa 0,0 mm 6,4 km/h (2 Bft) W-NW 292 0 min 0 UV-I 33 W/m 20,9 km/h (4 Bft)
30.05.2010 19:10 11,9 C 85 % 1004,5 hPa 0,0 mm 8,0 km/h (2 Bft) W-NW 292 0 min 0 UV-I 40 W/m 19,3 km/h (3 Bft)
30.05.2010 19:20 11,9 C 86 % 1004,5 hPa 0,3 mm 6,4 km/h (2 Bft) W 270 0 min 0 UV-I 107 W/m 19,3 km/h (3 Bft)
30.05.2010 19:30 11,8 C 87 % 1004,3 hPa 0,0 mm 6,4 km/h (2 Bft) W-NW 292 0 min 0 UV-I 120 W/m 19,3 km/h (3 Bft)
30.05.2010 19:40 11,9 C 87 % 1004,3 hPa 0,0 mm 4,8 km/h (1 Bft) W-SW 247 0 min 0 UV-I 98 W/m 14,5 km/h (3 Bft)
30.05.2010 19:50 11,9 C 86 % 1004,3 hPa 0,0 mm 4,8 km/h (1 Bft) W 270 10 min 0 UV-I 172 W/m 14,5 km/h (3 Bft)
30.05.2010 20:00 11,9 C 85 % 1004,4 hPa 0,0 mm 4,8 km/h (1 Bft) W-NW 292 0 min 0 UV-I 102 W/m 19,3 km/h (3 Bft)
30.05.2010 20:10 12,0 C 85 % 1004,2 hPa 0,0 mm 4,8 km/h (1 Bft) W 270 0 min 0 UV-I 39 W/m 11,3 km/h (2 Bft)
30.05.2010 20:20 12,0 C 86 % 1004,2 hPa 0,0 mm 3,2 km/h (1 Bft) W 270 0 min 0 UV-I 16 W/m 9,7 km/h (2 Bft)
30.05.2010 20:30 12,0 C 85 % 1004,5 hPa 0,0 mm 4,8 km/h (1 Bft) W-NW 292 0 min 0 UV-I 9 W/m 14,5 km/h (3 Bft)
30.05.2010 20:40 12,1 C 85 % 1004,8 hPa 0,0 mm 1,6 km/h (1 Bft) W 270 0 min 0 UV-I 9 W/m 11,3 km/h (2 Bft)
30.05.2010 20:50 12,1 C 82 % 1005,1 hPa 0,3 mm 8,0 km/h (2 Bft) W 270 0 min 0 UV-I 0 W/m 45,1 km/h (6 Bft)
30.05.2010 21:00 10,7 C 83 % 1005,5 hPa 1,3 mm 16,1 km/h (3 Bft) W 270 0 min 0 UV-I 0 W/m 37,0 km/h (5 Bft)
30.05.2010 21:10 9,4 C 85 % 1005,4 hPa 1,0 mm 11,3 km/h (2 Bft) W 270 0 min 0 UV-I 0 W/m 29,0 km/h (5 Bft)
30.05.2010 21:20 8,9 C 87 % 1005,5 hPa 0,5 mm 8,0 km/h (2 Bft) W 270 0 min 0 UV-I 0 W/m 19,3 km/h (3 Bft)
30.05.2010 21:30 8,8 C 88 % 1005,6 hPa 0,0 mm 6,4 km/h (2 Bft) W 270 0 min 0 UV-I 0 W/m 17,7 km/h (3 Bft)
30.05.2010 21:40 8,8 C 89 % 1005,7 hPa 0,0 mm 3,2 km/h (1 Bft) W-NW 292 0 min 0 UV-I 0 W/m 11,3 km/h (2 Bft)
30.05.2010 21:50 8,8 C 89 % 1005,9 hPa 0,0 mm 3,2 km/h (1 Bft) W-SW 247 0 min 0 UV-I 0 W/m 11,3 km/h (2 Bft)
30.05.2010 22:00 8,8 C 89 % 1005,8 hPa 0,0 mm 3,2 km/h (1 Bft) W-NW 292 0 min 0 UV-I 0 W/m 9,7 km/h (2 Bft)
30.05.2010 22:10 8,9 C 89 % 1005,8 hPa 0,0 mm 1,6 km/h (1 Bft) W-SW 247 0 min 0 UV-I 0 W/m 6,4 km/h (2 Bft)
30.05.2010 22:20 8,8 C 90 % 1005,7 hPa 0,0 mm 1,6 km/h (1 Bft) SW 225 0 min 0 UV-I 0 W/m 6,4 km/h (2 Bft)
30.05.2010 22:30 8,8 C 90 % 1005,6 hPa 0,3 mm 3,2 km/h (1 Bft) SW 225 0 min 0 UV-I 0 W/m 11,3 km/h (2 Bft)
30.05.2010 22:40 8,7 C 90 % 1005,5 hPa 0,0 mm 4,8 km/h (1 Bft) SW 225 0 min 0 UV-I 0 W/m 16,1 km/h (3 Bft)
30.05.2010 22:50 8,6 C 90 % 1005,5 hPa 0,0 mm 3,2 km/h (1 Bft) S-SW 202 0 min 0 UV-I 0 W/m 12,9 km/h (3 Bft)
30.05.2010 23:00 8,6 C 90 % 1005,5 hPa 0,0 mm 3,2 km/h (1 Bft) W 270 0 min 0 UV-I 0 W/m 16,1 km/h (3 Bft)
30.05.2010 23:10 8,4 C 90 % 1005,6 hPa 0,0 mm 6,4 km/h (2 Bft) W-SW 247 0 min 0 UV-I 0 W/m 16,1 km/h (3 Bft)
30.05.2010 23:20 8,5 C 90 % 1005,6 hPa 0,0 mm 4,8 km/h (1 Bft) S-SW 202 0 min 0 UV-I 0 W/m 11,3 km/h (2 Bft)
30.05.2010 23:30 8,5 C 90 % 1005,7 hPa 0,0 mm 6,4 km/h (2 Bft) W-SW 247 0 min 0 UV-I 0 W/m 17,7 km/h (3 Bft)
30.05.2010 23:40 8,5 C 89 % 1005,7 hPa 0,0 mm 6,4 km/h (2 Bft) W-SW 247 0 min 0 UV-I 0 W/m 20,9 km/h (4 Bft)
30.05.2010 23:50 8,5 C 89 % 1005,6 hPa 0,0 mm 4,8 km/h (1 Bft) W-SW 247 0 min 0 UV-I 0 W/m 14,5 km/h (3 Bft)
_ Min-Zeit 23:10 00:00 15:20 - 00:30 - - - - - 03:20
Minimum _ 8,4 C 64 % 1002,3 hPa - 0,0 km/h (0 Bft) - - - - - 1,6 km/h (1 Bft)
_ Max-Zeit 15:40 07:00 00:00 17:40 21:00 - - 09:10 13:40 13:40 20:50
Maximum _ 18,9 C 92 % 1009,9 hPa 1,3 mm 16,1 km/h
W (3 Bft)
- - 10 min 8 UV-I 1260 W/m 45,1 km/h
W-SW (6 Bft)
Durchschnitt _ 13,9 C 82 % 1005,2 hPa #13,5 mm 4,7 km/h (1 Bft) W - #4:50 h 3 UV-I 349 W/m 14,7 km/h (3 Bft)